Time;durP1;ratioP1;P1;durP2;ratioP2;P2;SDS_P1;SDS_P2;PMS_P1;PMS_P2;Temp;Humidity;BMP_temperature;BMP_pressure;BME280_temperature;BME280_humidity;BME280_pressure;Samples;Min_cycle;Max_cycle;Signal;HPM_P1;HPM_P2
2022/04/30 00:00:40;;;;;;;23.07;11.97;;;;;;;;;;5028735;28;20495;-60
2022/04/30 00:03:07;;;;;;;30.80;12.07;;;;;;;;;;5028524;28;20046;-60
2022/04/30 00:05:34;;;;;;;25.17;12.87;;;;;;;;;;5031378;28;20048;-60
2022/04/30 00:08:01;;;;;;;23.17;11.90;;;;;;;;;;5028911;28;20054;-60
2022/04/30 00:10:27;;;;;;;27.93;12.57;;;;;;;;;;5046613;28;20107;-60
2022/04/30 00:12:53;;;;;;;30.40;13.33;;;;;;;;;;5048582;28;20037;-60
2022/04/30 00:15:20;;;;;;;33.17;13.23;;;;;;;;;;5048288;28;20041;-60
2022/04/30 00:17:46;;;;;;;34.33;14.10;;;;;;;;;;5042371;28;20046;-60
2022/04/30 00:20:13;;;;;;;30.70;14.10;;;;;;;;;;5027361;28;20045;-60
2022/04/30 00:22:39;;;;;;;26.27;12.47;;;;;;;;;;5042480;28;20048;-60
2022/04/30 00:25:07;;;;;;;33.60;14.27;;;;;;;;;;5048234;28;20048;-60
2022/04/30 00:27:34;;;;;;;26.20;12.17;;;;;;;;;;5050692;28;20072;-60
2022/04/30 00:30:00;;;;;;;32.27;13.37;;;;;;;;;;5051980;28;20060;-60
2022/04/30 00:32:26;;;;;;;24.10;11.97;;;;;;;;;;5051737;28;20088;-60
2022/04/30 00:34:53;;;;;;;30.53;13.50;;;;;;;;;;5036402;28;20057;-60
2022/04/30 00:37:19;;;;;;;27.63;13.33;;;;;;;;;;5032290;28;20049;-60
2022/04/30 00:39:45;;;;;;;26.80;13.10;;;;;;;;;;5031477;28;20046;-60
2022/04/30 00:42:12;;;;;;;29.47;12.67;;;;;;;;;;5042200;28;20049;-60
2022/04/30 00:44:38;;;;;;;33.00;15.30;;;;;;;;;;5051452;28;20087;-60
2022/04/30 00:47:04;;;;;;;31.07;13.23;;;;;;;;;;5051709;28;20049;-60
2022/04/30 00:49:30;;;;;;;30.40;13.13;;;;;;;;;;5051158;28;20049;-60
2022/04/30 00:51:59;;;;;;;34.33;14.43;;;;;;;;;;5051734;28;20125;-60
2022/04/30 00:54:26;;;;;;;31.23;12.93;;;;;;;;;;5051141;28;20045;-60
2022/04/30 00:56:53;;;;;;;30.10;14.47;;;;;;;;;;5051121;28;20045;-60
2022/04/30 00:59:20;;;;;;;34.73;15.17;;;;;;;;;;5051580;28;21059;-60
2022/04/30 01:01:47;;;;;;;38.83;14.93;;;;;;;;;;5051142;28;20460;-60
2022/04/30 01:04:14;;;;;;;27.87;14.00;;;;;;;;;;5050911;28;20060;-60
2022/04/30 01:06:47;;;;;;;39.43;15.00;;;;;;;;;;5033169;28;20041;-60
2022/04/30 01:09:13;;;;;;;31.43;13.47;;;;;;;;;;5032587;28;20171;-59
2022/04/30 01:11:40;;;;;;;35.67;14.80;;;;;;;;;;5031254;28;20069;-60
2022/04/30 01:14:07;;;;;;;32.97;15.03;;;;;;;;;;5031274;28;20050;-60
2022/04/30 01:16:34;;;;;;;29.13;13.80;;;;;;;;;;5031339;28;20059;-60
2022/04/30 01:19:01;;;;;;;31.83;14.47;;;;;;;;;;5031594;28;20050;-60
2022/04/30 01:21:29;;;;;;;30.27;14.90;;;;;;;;;;5031103;28;20277;-60
2022/04/30 01:23:55;;;;;;;36.27;15.60;;;;;;;;;;5031211;28;20049;-60
2022/04/30 01:26:23;;;;;;;36.03;14.73;;;;;;;;;;5032163;28;20495;-60
2022/04/30 01:28:49;;;;;;;34.07;15.33;;;;;;;;;;5035265;28;20308;-60
2022/04/30 01:39:29;;;;;;;45.50;16.87;;;;;;;;;;5050581;28;20284;-60
2022/04/30 01:41:56;;;;;;;42.30;16.13;;;;;;;;;;5050773;28;20293;-60
2022/04/30 01:44:23;;;;;;;35.37;15.57;;;;;;;;;;5050274;28;20276;-60
2022/04/30 01:46:49;;;;;;;38.67;16.30;;;;;;;;;;5049440;28;20287;-60
2022/04/30 01:49:18;;;;;;;27.30;13.37;;;;;;;;;;5050727;28;20076;-60
2022/04/30 01:51:48;;;;;;;37.87;16.73;;;;;;;;;;5050357;28;20132;-60
2022/04/30 01:54:14;;;;;;;34.43;14.73;;;;;;;;;;5050613;28;20304;-60
2022/04/30 01:56:40;;;;;;;37.93;15.67;;;;;;;;;;5050055;28;20296;-60
2022/04/30 01:59:06;;;;;;;38.60;16.23;;;;;;;;;;5048879;28;20049;-60
2022/04/30 02:01:32;;;;;;;37.70;16.30;;;;;;;;;;5050220;28;20409;-60
2022/04/30 02:03:58;;;;;;;43.27;15.53;;;;;;;;;;5044315;28;20044;-60
2022/04/30 02:06:25;;;;;;;37.07;15.97;;;;;;;;;;5033590;28;20291;-60
2022/04/30 02:08:51;;;;;;;43.60;16.87;;;;;;;;;;5049818;28;20048;-60
2022/04/30 02:11:17;;;;;;;43.93;15.47;;;;;;;;;;5048515;28;20426;-60
2022/04/30 02:13:52;;;;;;;40.80;17.00;;;;;;;;;;5050327;28;20840;-60
2022/04/30 02:16:20;;;;;;;43.10;17.00;;;;;;;;;;5050194;28;20283;-60
2022/04/30 02:18:47;;;;;;;46.27;17.93;;;;;;;;;;5049881;28;20063;-60
2022/04/30 02:21:14;;;;;;;36.57;17.37;;;;;;;;;;5049756;28;20789;-60
2022/04/30 02:23:40;;;;;;;40.73;17.17;;;;;;;;;;5042809;28;20295;-60
2022/04/30 02:26:09;;;;;;;35.73;15.10;;;;;;;;;;5041805;28;20284;-60
2022/04/30 02:28:36;;;;;;;49.47;18.03;;;;;;;;;;5049609;28;20414;-60
2022/04/30 02:31:02;;;;;;;43.33;16.67;;;;;;;;;;5049588;28;20280;-60
2022/04/30 02:33:28;;;;;;;44.03;17.37;;;;;;;;;;5049801;28;20284;-60
2022/04/30 02:35:57;;;;;;;36.37;15.07;;;;;;;;;;5049929;28;20287;-60
2022/04/30 02:38:24;;;;;;;40.93;16.20;;;;;;;;;;5046118;28;20379;-61
2022/04/30 02:40:51;;;;;;;40.90;16.70;;;;;;;;;;5029566;28;20049;-60
2022/04/30 02:43:19;;;;;;;37.67;14.80;;;;;;;;;;5029933;28;20363;-60
2022/04/30 02:45:46;;;;;;;38.60;16.30;;;;;;;;;;5029435;28;20053;-60
2022/04/30 02:48:13;;;;;;;38.27;15.97;;;;;;;;;;5029418;28;20819;-61
2022/04/30 02:50:40;;;;;;;49.67;17.37;;;;;;;;;;5028999;28;20292;-61
2022/04/30 02:53:06;;;;;;;38.43;15.93;;;;;;;;;;5029164;28;20355;-60
2022/04/30 02:55:33;;;;;;;46.37;17.83;;;;;;;;;;5029516;28;20044;-60
2022/04/30 03:00:44;;;;;;;47.60;16.50;;;;;;;;;;5029748;28;20292;-60
2022/04/30 03:03:12;;;;;;;51.50;18.30;;;;;;;;;;5031071;28;20280;-60
2022/04/30 03:05:43;;;;;;;44.17;16.87;;;;;;;;;;5049334;28;20292;-60
2022/04/30 03:08:13;;;;;;;38.93;17.30;;;;;;;;;;5048892;28;20805;-60
2022/04/30 03:10:44;;;;;;;36.53;16.53;;;;;;;;;;5048980;28;20315;-61
2022/04/30 03:13:10;;;;;;;39.67;17.37;;;;;;;;;;5049027;28;20049;-61
2022/04/30 03:15:39;;;;;;;35.10;16.43;;;;;;;;;;5048734;28;20781;-60
2022/04/30 03:23:39;;;;;;;42.83;17.63;;;;;;;;;;5049084;28;20359;-60
2022/04/30 03:26:05;;;;;;;42.30;17.80;;;;;;;;;;5048452;28;20458;-61
2022/04/30 03:28:32;;;;;;;43.90;16.47;;;;;;;;;;5048833;28;20073;-61
2022/04/30 03:30:59;;;;;;;51.67;19.57;;;;;;;;;;5046937;28;20102;-61
2022/04/30 03:33:26;;;;;;;42.87;16.67;;;;;;;;;;5047810;28;20044;-60
2022/04/30 03:35:52;;;;;;;45.67;17.83;;;;;;;;;;5048685;28;20657;-61
2022/04/30 03:38:18;;;;;;;38.60;16.43;;;;;;;;;;5048745;28;20044;-60
2022/04/30 03:40:44;;;;;;;44.77;18.17;;;;;;;;;;5048422;28;20072;-61
2022/04/30 03:43:10;;;;;;;55.30;20.37;;;;;;;;;;5048836;28;20044;-61
2022/04/30 03:45:36;;;;;;;52.77;19.17;;;;;;;;;;5048535;28;20053;-61
2022/04/30 03:48:03;;;;;;;51.43;18.53;;;;;;;;;;5048410;28;20088;-61
2022/04/30 03:50:29;;;;;;;49.20;18.47;;;;;;;;;;5048676;28;20033;-61
2022/04/30 03:52:55;;;;;;;44.17;16.83;;;;;;;;;;5048672;28;20521;-61
2022/04/30 03:55:22;;;;;;;45.57;18.30;;;;;;;;;;5036306;28;20053;-61
2022/04/30 03:57:48;;;;;;;47.87;18.17;;;;;;;;;;5028849;28;20296;-61
2022/04/30 04:00:15;;;;;;;41.27;17.57;;;;;;;;;;5028328;28;20666;-61
2022/04/30 04:02:41;;;;;;;46.73;17.13;;;;;;;;;;5031334;28;20128;-61
2022/04/30 04:05:12;;;;;;;47.17;18.20;;;;;;;;;;5032689;28;20055;-61
2022/04/30 04:07:38;;;;;;;45.70;17.57;;;;;;;;;;5032752;28;20334;-61
2022/04/30 04:10:05;;;;;;;42.47;17.67;;;;;;;;;;5032791;28;20045;-61
2022/04/30 04:12:31;;;;;;;38.63;17.50;;;;;;;;;;5032319;28;20091;-61
2022/04/30 04:17:41;;;;;;;49.73;17.67;;;;;;;;;;5032171;28;20129;-61
2022/04/30 04:20:09;;;;;;;40.53;17.80;;;;;;;;;;5032019;28;20041;-61
2022/04/30 04:22:36;;;;;;;37.90;17.03;;;;;;;;;;5032155;28;20053;-61
2022/04/30 04:27:47;;;;;;;48.97;18.67;;;;;;;;;;5051849;28;20498;-61
2022/04/30 04:30:13;;;;;;;37.50;17.20;;;;;;;;;;5049943;28;20179;-61
2022/04/30 04:32:39;;;;;;;36.47;16.27;;;;;;;;;;5051755;28;20037;-61
2022/04/30 04:35:05;;;;;;;41.10;17.47;;;;;;;;;;5047014;28;20094;-61
2022/04/30 04:37:32;;;;;;;37.27;16.83;;;;;;;;;;5051561;28;20058;-61
2022/04/30 04:39:58;;;;;;;38.27;17.33;;;;;;;;;;5051308;28;20049;-61
2022/04/30 04:42:24;;;;;;;37.17;17.03;;;;;;;;;;5036358;28;20238;-61
2022/04/30 04:44:50;;;;;;;41.67;18.23;;;;;;;;;;5032372;28;20057;-62
2022/04/30 04:47:16;;;;;;;37.93;16.43;;;;;;;;;;5046323;28;20048;-61
2022/04/30 04:49:43;;;;;;;37.60;16.67;;;;;;;;;;5051135;28;20045;-61
2022/04/30 04:52:10;;;;;;;46.60;17.60;;;;;;;;;;5043852;28;20041;-61
2022/04/30 04:54:36;;;;;;;43.13;19.20;;;;;;;;;;5031301;28;20042;-61
2022/04/30 04:57:02;;;;;;;38.73;16.57;;;;;;;;;;5031671;28;20042;-61
2022/04/30 04:59:28;;;;;;;42.17;18.03;;;;;;;;;;5031020;28;20077;-61
2022/04/30 05:01:54;;;;;;;37.97;17.17;;;;;;;;;;5031240;28;20049;-61
2022/04/30 05:04:21;;;;;;;35.40;17.00;;;;;;;;;;5031158;28;20041;-62
2022/04/30 05:06:48;;;;;;;41.70;19.57;;;;;;;;;;5031259;28;20132;-61
2022/04/30 05:09:14;;;;;;;43.73;18.90;;;;;;;;;;5030880;28;20561;-61
2022/04/30 05:11:40;;;;;;;39.37;17.07;;;;;;;;;;5031193;28;20049;-61
2022/04/30 05:14:06;;;;;;;44.67;19.13;;;;;;;;;;5030825;28;20045;-61
2022/04/30 05:16:32;;;;;;;51.47;21.93;;;;;;;;;;5037739;28;20521;-61
2022/04/30 05:18:59;;;;;;;39.03;19.17;;;;;;;;;;5037860;28;20041;-61
2022/04/30 05:21:25;;;;;;;44.60;20.30;;;;;;;;;;5031404;28;20523;-61
2022/04/30 05:23:51;;;;;;;42.33;20.37;;;;;;;;;;5050606;28;20053;-61
2022/04/30 05:26:17;;;;;;;37.87;17.87;;;;;;;;;;5050841;28;20462;-61
2022/04/30 05:28:43;;;;;;;31.83;18.50;;;;;;;;;;5043212;28;20053;-62
2022/04/30 05:31:09;;;;;;;36.90;17.90;;;;;;;;;;5030650;28;20053;-62
2022/04/30 05:33:36;;;;;;;38.80;18.90;;;;;;;;;;5040005;28;20048;-62
2022/04/30 05:36:03;;;;;;;32.27;17.27;;;;;;;;;;5035615;28;20128;-61
2022/04/30 05:38:28;;;;;;;37.77;18.40;;;;;;;;;;5041172;28;20064;-62
2022/04/30 05:40:54;;;;;;;38.33;18.80;;;;;;;;;;5038749;28;20388;-62
2022/04/30 05:43:20;;;;;;;37.17;18.03;;;;;;;;;;5040504;28;20049;-62
2022/04/30 05:45:47;;;;;;;39.83;19.43;;;;;;;;;;5038541;28;20052;-62
2022/04/30 05:48:13;;;;;;;39.47;19.30;;;;;;;;;;5039486;28;20041;-61
2022/04/30 05:50:39;;;;;;;40.00;19.30;;;;;;;;;;5040156;28;20052;-61
2022/04/30 05:53:05;;;;;;;31.57;16.63;;;;;;;;;;5036996;28;20412;-61
2022/04/30 05:55:31;;;;;;;28.67;17.30;;;;;;;;;;5039202;28;20041;-61
2022/04/30 05:57:57;;;;;;;31.50;16.77;;;;;;;;;;5039794;28;20138;-62
2022/04/30 06:00:23;;;;;;;37.60;17.57;;;;;;;;;;5036658;28;20045;-61
2022/04/30 06:02:50;;;;;;;35.77;17.67;;;;;;;;;;5039438;28;20044;-61
2022/04/30 06:05:16;;;;;;;27.77;16.50;;;;;;;;;;5040496;28;20090;-62
2022/04/30 06:07:42;;;;;;;27.27;15.97;;;;;;;;;;5037500;28;20091;-61
2022/04/30 06:10:09;;;;;;;26.37;16.30;;;;;;;;;;5038557;28;20048;-61
2022/04/30 06:12:35;;;;;;;34.00;17.07;;;;;;;;;;5039391;28;20128;-61
2022/04/30 06:15:01;;;;;;;24.30;14.83;;;;;;;;;;5037617;28;20216;-61
2022/04/30 06:17:27;;;;;;;35.57;16.57;;;;;;;;;;5036599;28;20422;-61
2022/04/30 06:19:53;;;;;;;25.23;14.20;;;;;;;;;;5039109;28;20048;-61
2022/04/30 06:22:19;;;;;;;26.70;13.50;;;;;;;;;;5037657;28;20045;-61
2022/04/30 06:24:45;;;;;;;25.47;13.10;;;;;;;;;;5038130;28;20033;-61
2022/04/30 06:27:11;;;;;;;16.93;12.47;;;;;;;;;;5039240;28;20068;-62
2022/04/30 06:29:38;;;;;;;22.30;12.50;;;;;;;;;;5036287;28;20884;-61
2022/04/30 06:32:05;;;;;;;20.77;12.20;;;;;;;;;;5039690;28;20479;-60
2022/04/30 06:34:31;;;;;;;15.83;9.60;;;;;;;;;;5037627;28;20041;-61
2022/04/30 06:36:57;;;;;;;18.83;10.90;;;;;;;;;;5037176;28;20400;-63
2022/04/30 06:39:22;;;;;;;15.90;10.03;;;;;;;;;;5039270;28;20091;-61
2022/04/30 06:41:48;;;;;;;19.60;10.90;;;;;;;;;;5036185;28;20041;-61
2022/04/30 06:44:14;;;;;;;20.47;10.93;;;;;;;;;;5038646;28;20033;-61
2022/04/30 06:46:40;;;;;;;15.20;9.63;;;;;;;;;;5036776;28;20038;-61
2022/04/30 06:49:07;;;;;;;16.27;9.87;;;;;;;;;;5037976;28;20383;-61
2022/04/30 06:51:33;;;;;;;16.00;8.83;;;;;;;;;;5030439;28;20515;-61
2022/04/30 06:59:31;;;;;;;15.00;8.27;;;;;;;;;;5029155;28;20144;-61
2022/04/30 07:02:06;;;;;;;20.10;9.50;;;;;;;;;;5028656;28;20049;-61
2022/04/30 07:04:32;;;;;;;11.87;7.13;;;;;;;;;;5027438;28;20050;-61
2022/04/30 07:06:58;;;;;;;15.13;8.30;;;;;;;;;;5029036;28;20056;-61
2022/04/30 07:09:25;;;;;;;16.10;8.13;;;;;;;;;;5029186;28;20050;-61
2022/04/30 07:11:51;;;;;;;11.53;7.50;;;;;;;;;;5028902;28;20385;-61
2022/04/30 07:14:17;;;;;;;17.60;7.80;;;;;;;;;;5028860;28;20152;-61
2022/04/30 07:16:43;;;;;;;12.57;7.43;;;;;;;;;;5042670;28;20586;-61
2022/04/30 07:19:09;;;;;;;10.43;6.90;;;;;;;;;;5047861;28;20131;-61
2022/04/30 07:21:35;;;;;;;13.80;7.13;;;;;;;;;;5042838;28;20049;-61
2022/04/30 07:24:01;;;;;;;11.70;7.63;;;;;;;;;;5029050;28;20045;-61
2022/04/30 07:26:28;;;;;;;9.70;5.97;;;;;;;;;;5039919;28;20049;-61
2022/04/30 07:28:54;;;;;;;8.23;6.00;;;;;;;;;;5045230;28;20507;-61
2022/04/30 07:31:20;;;;;;;11.07;6.17;;;;;;;;;;5041814;28;20041;-61
2022/04/30 07:33:51;;;;;;;11.63;6.43;;;;;;;;;;5027236;28;20049;-61
2022/04/30 07:36:17;;;;;;;12.30;6.13;;;;;;;;;;5031886;28;20044;-61
2022/04/30 07:38:43;;;;;;;11.87;5.70;;;;;;;;;;5033425;28;20041;-61
2022/04/30 07:41:09;;;;;;;9.07;5.63;;;;;;;;;;5050333;28;20667;-61
2022/04/30 07:43:35;;;;;;;13.27;5.73;;;;;;;;;;5050255;28;20036;-61
2022/04/30 07:46:01;;;;;;;8.93;5.83;;;;;;;;;;5037213;28;20049;-61
2022/04/30 07:48:27;;;;;;;10.13;5.20;;;;;;;;;;5049343;28;20053;-61
2022/04/30 07:50:57;;;;;;;7.50;4.77;;;;;;;;;;5043965;28;20563;-61
2022/04/30 07:53:24;;;;;;;7.53;4.87;;;;;;;;;;5052622;28;20083;-61
2022/04/30 07:55:50;;;;;;;6.23;4.70;;;;;;;;;;5045653;28;20077;-61
2022/04/30 07:58:16;;;;;;;10.43;4.80;;;;;;;;;;5034522;28;20065;-61
2022/04/30 08:00:42;;;;;;;10.23;4.80;;;;;;;;;;5038424;28;20090;-61
2022/04/30 08:03:08;;;;;;;9.27;4.40;;;;;;;;;;5033728;28;20055;-62
2022/04/30 08:05:34;;;;;;;10.23;4.93;;;;;;;;;;5038546;28;20439;-62
2022/04/30 08:08:00;;;;;;;6.87;4.43;;;;;;;;;;5036872;28;20049;-62
2022/04/30 08:10:27;;;;;;;9.90;4.27;;;;;;;;;;5033177;28;20875;-62
2022/04/30 08:12:56;;;;;;;6.83;4.03;;;;;;;;;;5040815;28;20037;-62
2022/04/30 08:15:25;;;;;;;10.03;4.63;;;;;;;;;;5037812;28;20462;-62
2022/04/30 08:17:52;;;;;;;8.73;4.10;;;;;;;;;;5039019;28;20579;-61
2022/04/30 08:20:18;;;;;;;7.07;4.27;;;;;;;;;;5038245;28;20088;-62
2022/04/30 08:22:44;;;;;;;7.87;4.07;;;;;;;;;;5046455;28;20461;-61
2022/04/30 08:25:10;;;;;;;5.77;3.77;;;;;;;;;;5041824;28;20045;-62
2022/04/30 08:27:36;;;;;;;10.13;3.90;;;;;;;;;;5036750;28;20406;-62
2022/04/30 08:30:02;;;;;;;6.53;4.40;;;;;;;;;;5042120;28;20079;-61
2022/04/30 08:32:29;;;;;;;8.87;4.47;;;;;;;;;;5030691;28;20055;-62
2022/04/30 08:34:55;;;;;;;7.13;4.13;;;;;;;;;;5027857;28;20088;-62
2022/04/30 08:37:21;;;;;;;8.47;4.43;;;;;;;;;;5043993;28;20049;-62
2022/04/30 08:39:48;;;;;;;9.20;4.53;;;;;;;;;;5047093;28;20060;-62
2022/04/30 08:42:16;;;;;;;8.67;5.23;;;;;;;;;;5037792;28;20056;-62
2022/04/30 08:44:42;;;;;;;8.33;4.30;;;;;;;;;;5058185;28;20052;-61
2022/04/30 08:47:11;;;;;;;8.60;4.40;;;;;;;;;;5066684;28;20101;-62
2022/04/30 08:49:41;;;;;;;11.07;4.73;;;;;;;;;;5068410;28;20118;-61
2022/04/30 08:52:07;;;;;;;8.17;4.27;;;;;;;;;;5071476;28;20576;-61
2022/04/30 08:54:33;;;;;;;7.60;3.80;;;;;;;;;;5053118;28;20094;-62
2022/04/30 08:56:59;;;;;;;9.17;4.13;;;;;;;;;;5043988;28;20048;-62
2022/04/30 08:59:25;;;;;;;7.47;4.13;;;;;;;;;;5050832;28;20073;-62
2022/04/30 09:01:52;;;;;;;7.57;4.33;;;;;;;;;;5050039;28;20049;-62
2022/04/30 09:04:19;;;;;;;6.37;3.67;;;;;;;;;;5035223;28;20037;-62
2022/04/30 09:06:46;;;;;;;9.43;3.57;;;;;;;;;;5030757;28;20041;-61
2022/04/30 09:09:12;;;;;;;8.87;3.80;;;;;;;;;;5030662;28;20133;-62
2022/04/30 09:11:39;;;;;;;8.50;4.30;;;;;;;;;;5030972;28;20499;-62
2022/04/30 09:14:05;;;;;;;9.20;3.60;;;;;;;;;;5031023;28;20055;-62
2022/04/30 09:16:32;;;;;;;7.47;3.23;;;;;;;;;;5030999;28;20068;-62
2022/04/30 09:19:01;;;;;;;6.57;3.30;;;;;;;;;;5039750;28;20094;-62
2022/04/30 09:21:27;;;;;;;8.23;3.00;;;;;;;;;;5051019;28;20056;-62
2022/04/30 09:24:02;;;;;;;10.47;3.70;;;;;;;;;;5045998;28;20033;-62
2022/04/30 09:26:38;;;;;;;8.63;3.67;;;;;;;;;;5031064;28;20388;-62
2022/04/30 09:29:09;;;;;;;6.10;3.33;;;;;;;;;;5031813;28;20055;-62
2022/04/30 09:31:35;;;;;;;5.83;2.97;;;;;;;;;;5034519;28;20037;-62
2022/04/30 09:37:41;;;;;;;7.03;2.80;;;;;;;;;;5039211;28;20418;-62
2022/04/30 09:39:34;;;;;;;7.13;3.00;;;;;;;;;;5037824;28;20081;-62
2022/04/30 09:42:01;;;;;;;7.90;3.50;;;;;;;;;;5030926;28;20073;-62
2022/04/30 09:44:28;;;;;;;7.50;3.07;;;;;;;;;;5042032;28;20569;-62
2022/04/30 09:46:55;;;;;;;4.33;2.77;;;;;;;;;;5040346;28;20049;-62
2022/04/30 09:54:52;;;;;;;7.43;2.63;;;;;;;;;;5061375;28;20417;-62
2022/04/30 09:57:19;;;;;;;5.80;2.53;;;;;;;;;;5057662;28;20033;-62
2022/04/30 09:59:47;;;;;;;6.60;2.70;;;;;;;;;;5043788;28;20478;-62
2022/04/30 10:02:16;;;;;;;4.67;2.87;;;;;;;;;;5038777;28;20450;-62
2022/04/30 10:04:43;;;;;;;10.53;3.47;;;;;;;;;;5035372;28;20040;-62
2022/04/30 10:07:10;;;;;;;5.83;2.90;;;;;;;;;;5049679;28;20068;-62
2022/04/30 10:09:42;;;;;;;7.17;3.43;;;;;;;;;;5056342;28;20049;-62
2022/04/30 10:12:25;;;;;;;5.90;2.83;;;;;;;;;;5037371;28;20100;-61
2022/04/30 10:14:51;;;;;;;6.05;3.35;;;;;;;;;;5032788;28;20048;-62
2022/04/30 10:17:20;;;;;;;6.97;3.27;;;;;;;;;;5046832;28;20793;-62
2022/04/30 10:19:59;;;;;;;6.93;2.90;;;;;;;;;;5041922;28;20045;-62
2022/04/30 10:22:25;;;;;;;7.03;3.67;;;;;;;;;;5041867;28;20041;-62
2022/04/30 10:24:54;;;;;;;7.57;2.90;;;;;;;;;;5048452;28;20099;-61
2022/04/30 10:27:20;;;;;;;11.10;2.77;;;;;;;;;;5048322;28;20556;-61
2022/04/30 10:29:53;;;;;;;6.43;3.13;;;;;;;;;;5036305;28;20511;-62
2022/04/30 10:32:26;;;;;;;5.38;2.58;;;;;;;;;;5027831;28;20426;-61
2022/04/30 10:34:55;;;;;;;9.23;2.80;;;;;;;;;;5040800;28;20037;-61
2022/04/30 10:37:31;;;;;;;7.93;3.30;;;;;;;;;;5028752;28;20037;-61
2022/04/30 10:39:58;;;;;;;4.30;2.83;;;;;;;;;;5028510;28;20118;-61
2022/04/30 10:42:32;;;;;;;10.63;2.80;;;;;;;;;;5028727;28;20610;-61
2022/04/30 10:44:58;;;;;;;6.53;2.97;;;;;;;;;;5040015;28;20044;-62
2022/04/30 10:47:25;;;;;;;7.00;3.53;;;;;;;;;;5056184;28;20049;-61
2022/04/30 10:49:51;;;;;;;9.30;3.73;;;;;;;;;;5060626;28;20869;-61
2022/04/30 10:52:21;;;;;;;10.50;4.23;;;;;;;;;;5046475;28;20091;-62
2022/04/30 10:54:49;;;;;;;9.37;3.40;;;;;;;;;;5047819;28;20146;-61
2022/04/30 10:57:15;;;;;;;8.57;3.50;;;;;;;;;;5047962;28;20055;-61
2022/04/30 10:59:41;;;;;;;6.57;3.50;;;;;;;;;;5047522;28;20045;-61
2022/04/30 11:02:11;;;;;;;6.77;3.23;;;;;;;;;;5044321;28;20208;-61
2022/04/30 11:04:37;;;;;;;5.67;3.43;;;;;;;;;;5067972;28;20794;-61
2022/04/30 11:07:03;;;;;;;7.53;4.10;;;;;;;;;;5067946;28;20056;-61
2022/04/30 11:09:29;;;;;;;6.90;4.40;;;;;;;;;;5053978;28;20179;-61
2022/04/30 11:11:56;;;;;;;8.60;4.70;;;;;;;;;;5036967;28;20136;-62
2022/04/30 11:14:22;;;;;;;10.70;5.03;;;;;;;;;;5034968;28;20606;-61
2022/04/30 11:16:52;;;;;;;8.93;4.77;;;;;;;;;;5040921;28;20047;-61
2022/04/30 11:19:19;;;;;;;6.13;4.60;;;;;;;;;;5030618;28;20499;-61
2022/04/30 11:21:50;;;;;;;9.53;4.93;;;;;;;;;;5031940;28;20103;-61
2022/04/30 11:24:43;;;;;;;10.07;5.27;;;;;;;;;;5046327;28;20047;-61
2022/04/30 11:27:09;;;;;;;6.00;4.40;;;;;;;;;;5043822;28;20798;-61
2022/04/30 11:29:48;;;;;;;7.67;4.73;;;;;;;;;;5033884;28;20128;-61
2022/04/30 11:32:20;;;;;;;7.80;4.67;;;;;;;;;;5043221;28;20036;-61
2022/04/30 11:34:46;;;;;;;8.13;5.38;;;;;;;;;;5048727;28;20144;-61
2022/04/30 11:37:12;;;;;;;9.10;4.57;;;;;;;;;;5032683;28;20087;-61
2022/04/30 11:39:38;;;;;;;8.67;4.67;;;;;;;;;;5047415;28;20459;-61
2022/04/30 11:42:04;;;;;;;9.67;4.10;;;;;;;;;;5046610;28;20080;-61
2022/04/30 11:44:30;;;;;;;5.87;3.37;;;;;;;;;;5044522;28;20155;-61
2022/04/30 11:46:56;;;;;;;8.13;4.27;;;;;;;;;;5047433;28;20037;-61
2022/04/30 11:49:24;;;;;;;7.13;3.87;;;;;;;;;;5046090;28;20048;-61
2022/04/30 11:51:51;;;;;;;7.27;3.53;;;;;;;;;;5047754;28;20045;-61
2022/04/30 11:54:18;;;;;;;8.30;3.73;;;;;;;;;;5054539;28;20037;-61
2022/04/30 11:56:44;;;;;;;4.90;3.83;;;;;;;;;;5066441;28;20051;-61
2022/04/30 11:59:11;;;;;;;9.73;4.07;;;;;;;;;;5064664;28;20129;-61
2022/04/30 12:01:41;;;;;;;6.47;3.80;;;;;;;;;;5067760;28;20044;-61
2022/04/30 12:04:11;;;;;;;7.37;3.20;;;;;;;;;;5067614;28;20087;-61
2022/04/30 12:06:38;;;;;;;5.83;4.20;;;;;;;;;;5049910;28;20037;-61
2022/04/30 12:09:21;;;;;;;7.73;4.40;;;;;;;;;;5047449;28;20049;-61
2022/04/30 12:11:51;;;;;;;8.07;4.07;;;;;;;;;;5045430;28;20090;-61
2022/04/30 12:14:21;;;;;;;13.60;4.40;;;;;;;;;;5042167;28;20395;-61
2022/04/30 12:16:48;;;;;;;8.90;4.40;;;;;;;;;;5043615;28;20495;-61
2022/04/30 12:24:57;;;;;;;7.70;4.30;;;;;;;;;;5031493;28;20049;-61
2022/04/30 12:27:23;;;;;;;10.73;4.47;;;;;;;;;;5030808;28;20045;-61
2022/04/30 12:30:05;;;;;;;8.67;4.77;;;;;;;;;;5039524;28;20521;-61
2022/04/30 12:32:33;;;;;;;7.80;4.37;;;;;;;;;;5042205;28;20086;-61
2022/04/30 12:34:59;;;;;;;12.93;4.93;;;;;;;;;;5030764;28;20069;-61
2022/04/30 12:37:35;;;;;;;9.40;4.97;;;;;;;;;;5042814;28;20473;-61
2022/04/30 12:40:01;;;;;;;9.70;5.57;;;;;;;;;;5050726;28;20399;-61
2022/04/30 12:42:28;;;;;;;8.70;4.87;;;;;;;;;;5050797;28;20152;-61
2022/04/30 12:44:54;;;;;;;8.30;4.67;;;;;;;;;;5046723;28;20091;-61
2022/04/30 12:47:20;;;;;;;10.67;5.47;;;;;;;;;;5050644;28;20041;-61
2022/04/30 12:49:46;;;;;;;6.67;4.40;;;;;;;;;;5035827;28;20050;-61
2022/04/30 12:52:12;;;;;;;9.13;5.00;;;;;;;;;;5046738;28;20067;-61
2022/04/30 12:54:38;;;;;;;8.83;5.27;;;;;;;;;;5049384;28;20057;-61
2022/04/30 12:57:07;;;;;;;9.07;4.90;;;;;;;;;;5048934;28;20486;-61
2022/04/30 12:59:33;;;;;;;5.77;5.03;;;;;;;;;;5036207;28;20100;-61
2022/04/30 13:01:59;;;;;;;8.70;5.03;;;;;;;;;;5029292;28;20121;-61
2022/04/30 13:04:25;;;;;;;6.80;4.30;;;;;;;;;;5045679;28;20037;-61
2022/04/30 13:06:51;;;;;;;7.00;4.30;;;;;;;;;;5050271;28;20037;-61
2022/04/30 13:14:52;;;;;;;9.87;4.80;;;;;;;;;;5050466;28;20063;-61
2022/04/30 13:17:18;;;;;;;8.93;4.13;;;;;;;;;;5048638;28;20049;-61
2022/04/30 13:19:44;;;;;;;6.03;4.33;;;;;;;;;;5050188;28;20056;-61
2022/04/30 13:22:10;;;;;;;12.00;4.60;;;;;;;;;;5050237;28;20098;-61
2022/04/30 13:24:36;;;;;;;5.27;4.57;;;;;;;;;;5050359;28;20088;-63
2022/04/30 13:27:02;;;;;;;11.90;5.07;;;;;;;;;;5050280;28;20045;-61
2022/04/30 13:29:28;;;;;;;11.03;4.60;;;;;;;;;;5041776;28;20057;-62
2022/04/30 13:31:55;;;;;;;7.03;3.90;;;;;;;;;;5039134;28;20423;-61
2022/04/30 13:34:21;;;;;;;9.30;4.50;;;;;;;;;;5038122;28;20062;-61
2022/04/30 13:36:48;;;;;;;5.40;3.77;;;;;;;;;;5037941;28;20131;-60
2022/04/30 13:39:14;;;;;;;5.70;3.80;;;;;;;;;;5034862;28;20041;-61
2022/04/30 13:41:40;;;;;;;6.83;4.43;;;;;;;;;;5029911;28;20426;-61
2022/04/30 13:44:09;;;;;;;8.70;4.40;;;;;;;;;;5029784;28;20111;-61
2022/04/30 13:46:35;;;;;;;9.27;3.60;;;;;;;;;;5029756;28;20077;-61
2022/04/30 13:49:01;;;;;;;8.53;3.63;;;;;;;;;;5028682;28;20107;-61
2022/04/30 13:51:27;;;;;;;7.73;4.03;;;;;;;;;;5036602;28;20041;-61
2022/04/30 13:53:53;;;;;;;6.50;3.80;;;;;;;;;;5046528;28;20433;-61
2022/04/30 13:56:19;;;;;;;8.43;4.13;;;;;;;;;;5043111;28;20132;-60
2022/04/30 13:58:45;;;;;;;7.30;4.40;;;;;;;;;;5040532;28;20518;-60
2022/04/30 14:01:12;;;;;;;11.57;5.00;;;;;;;;;;5036547;28;20049;-60
2022/04/30 14:03:38;;;;;;;9.37;5.00;;;;;;;;;;5042848;28;20049;-61
2022/04/30 14:06:04;;;;;;;6.67;4.10;;;;;;;;;;5040552;28;20449;-61
2022/04/30 14:08:30;;;;;;;6.00;4.40;;;;;;;;;;5032635;28;20057;-61
2022/04/30 14:10:56;;;;;;;8.43;4.40;;;;;;;;;;5030301;28;20041;-61
2022/04/30 14:16:07;;;;;;;7.70;4.83;;;;;;;;;;5038923;28;20131;-60
2022/04/30 14:18:34;;;;;;;6.57;4.53;;;;;;;;;;5040116;28;20045;-61
2022/04/30 14:21:04;;;;;;;6.33;4.17;;;;;;;;;;5039648;28;20049;-61
2022/04/30 14:23:31;;;;;;;7.40;3.80;;;;;;;;;;5039920;28;20091;-61
2022/04/30 14:25:57;;;;;;;7.20;4.27;;;;;;;;;;5039331;28;20411;-60
2022/04/30 14:28:23;;;;;;;10.07;4.47;;;;;;;;;;5039802;28;20130;-60
2022/04/30 14:30:49;;;;;;;6.30;4.20;;;;;;;;;;5032821;28;20049;-61
2022/04/30 14:33:16;;;;;;;6.77;4.00;;;;;;;;;;5030051;28;20099;-60
2022/04/30 14:35:42;;;;;;;7.43;4.27;;;;;;;;;;5027947;28;20514;-60
2022/04/30 14:38:08;;;;;;;9.20;3.73;;;;;;;;;;5029182;28;20056;-60
2022/04/30 14:40:43;;;;;;;6.37;3.93;;;;;;;;;;5036928;28;20033;-60
2022/04/30 14:43:10;;;;;;;6.87;4.60;;;;;;;;;;5036280;28;20487;-61
2022/04/30 14:45:40;;;;;;;5.60;4.00;;;;;;;;;;5037664;28;20037;-60
2022/04/30 14:48:06;;;;;;;14.50;7.20;;;;;;;;;;5039148;28;20045;-60
2022/04/30 14:50:33;;;;;;;5.53;4.10;;;;;;;;;;5034703;28;20045;-61
2022/04/30 14:52:59;;;;;;;6.60;3.73;;;;;;;;;;5032554;28;20120;-61
2022/04/30 14:55:26;;;;;;;7.37;4.20;;;;;;;;;;5047972;28;20862;-61
2022/04/30 14:57:52;;;;;;;6.53;4.10;;;;;;;;;;5044389;28;20041;-61
2022/04/30 15:00:18;;;;;;;9.03;3.80;;;;;;;;;;5049121;28;20051;-61
2022/04/30 15:02:45;;;;;;;5.27;3.60;;;;;;;;;;5049294;28;20049;-61
2022/04/30 15:05:11;;;;;;;6.20;3.60;;;;;;;;;;5045052;28;20135;-61
2022/04/30 15:07:37;;;;;;;7.37;3.50;;;;;;;;;;5028982;28;20049;-60
2022/04/30 15:10:04;;;;;;;6.57;3.43;;;;;;;;;;5029252;28;20458;-60
2022/04/30 15:12:30;;;;;;;7.03;3.90;;;;;;;;;;5045235;28;20136;-61
2022/04/30 15:14:56;;;;;;;7.03;3.27;;;;;;;;;;5028968;28;20053;-60
2022/04/30 15:17:22;;;;;;;8.97;3.57;;;;;;;;;;5034126;28;20098;-61
2022/04/30 15:19:48;;;;;;;5.53;3.33;;;;;;;;;;5038914;28;20070;-61